Time;durP1;ratioP1;P1;durP2;ratioP2;P2;SDS_P1;SDS_P2;PMS_P1;PMS_P2;Temp;Humidity;BMP_temperature;BMP_pressure;BME280_temperature;BME280_humidity;BME280_pressure;Samples;Min_cycle;Max_cycle;Signal;HPM_P1;HPM_P2
2023/10/15 00:01:33;;;;;;;11.43;4.65;;;10.90;99.90;;;;;;5052452;28;20029;-79
2023/10/15 00:03:59;;;;;;;10.85;5.13;;;10.90;99.90;;;;;;5052801;28;20088;-79
2023/10/15 00:06:25;;;;;;;9.63;4.63;;;10.90;99.90;;;;;;5052470;28;20132;-79
2023/10/15 00:08:51;;;;;;;8.68;4.15;;;10.90;99.90;;;;;;5052736;28;20025;-78
2023/10/15 00:11:21;;;;;;;13.75;4.85;;;10.80;99.90;;;;;;5052214;28;20029;-80
2023/10/15 00:13:47;;;;;;;9.88;4.45;;;10.80;99.90;;;;;;5052442;28;20029;-80
2023/10/15 00:16:20;;;;;;;9.35;4.88;;;10.80;99.90;;;;;;5051619;28;20047;-79
2023/10/15 00:18:46;;;;;;;12.60;4.95;;;10.80;99.90;;;;;;5052268;28;20397;-80
2023/10/15 00:21:12;;;;;;;11.35;5.18;;;10.80;99.90;;;;;;5051104;28;20032;-80
2023/10/15 00:23:42;;;;;;;10.30;4.35;;;10.80;99.90;;;;;;5052642;28;20039;-79
2023/10/15 00:26:12;;;;;;;12.93;5.63;;;10.70;99.90;;;;;;5052389;28;20025;-80
2023/10/15 00:28:44;;;;;;;12.05;4.95;;;10.70;99.90;;;;;;5051747;28;20732;-79
2023/10/15 00:31:13;;;;;;;14.75;5.60;;;10.70;99.90;;;;;;5052364;28;20103;-79
2023/10/15 00:33:42;;;;;;;11.20;4.80;;;10.70;99.90;;;;;;5051815;28;20067;-79
2023/10/15 00:36:15;;;;;;;11.93;5.43;;;10.80;99.90;;;;;;5052413;28;20025;-78
2023/10/15 00:38:43;;;;;;;;;;;10.70;99.90;;;;;;5037580;28;20024;-77
2023/10/15 00:41:13;;;;;;;13.20;5.82;;;10.70;99.90;;;;;;5031451;28;19915;-77
2023/10/15 00:43:55;;;;;;;9.45;5.40;;;10.80;99.90;;;;;;5037234;28;20021;-76
2023/10/15 00:46:32;;;;;;;12.32;5.57;;;10.80;99.90;;;;;;5036503;28;20091;-77
2023/10/15 00:49:09;;;;;;;15.30;5.35;;;10.80;99.90;;;;;;5032098;28;20034;-77
2023/10/15 00:51:40;;;;;;;11.20;5.65;;;10.70;99.90;;;;;;5032560;28;20029;-77
2023/10/15 00:54:11;;;;;;;12.13;4.80;;;10.80;99.90;;;;;;5031603;28;20041;-77
2023/10/15 00:56:38;;;;;;;12.00;5.05;;;10.70;99.90;;;;;;5027951;28;20021;-77
2023/10/15 00:59:16;;;;;;;8.68;5.13;;;10.80;99.90;;;;;;5050812;28;20517;-77
2023/10/15 01:01:53;;;;;;;13.18;5.57;;;10.80;99.90;;;;;;5052064;28;20528;-77
2023/10/15 01:04:25;;;;;;;10.98;4.45;;;10.80;99.90;;;;;;5033456;28;20382;-76
2023/10/15 01:06:51;;;;;;;13.23;4.85;;;10.90;99.90;;;;;;5051103;28;20017;-76
2023/10/15 01:09:27;;;;;;;10.98;4.45;;;10.90;99.90;;;;;;5048125;28;20090;-76
2023/10/15 01:11:56;;;;;;;12.27;3.97;;;10.90;99.90;;;;;;5014740;28;20084;-76
2023/10/15 01:14:27;;;;;;;9.35;4.25;;;11.00;99.90;;;;;;5039819;28;20140;-76
2023/10/15 01:16:54;;;;;;;9.80;4.40;;;11.00;99.90;;;;;;5038809;28;20022;-76
2023/10/15 01:19:24;;;;;;;11.73;3.97;;;11.00;99.90;;;;;;5039342;28;20466;-76
2023/10/15 01:21:53;;;;;;;9.75;4.43;;;11.10;99.90;;;;;;5019393;28;20032;-76
2023/10/15 01:24:20;;;;;;;11.50;4.00;;;11.00;99.90;;;;;;5037223;28;20055;-76
2023/10/15 01:29:33;;;;;;;12.90;5.13;;;11.00;99.90;;;;;;5037702;28;20120;-76
2023/10/15 01:32:07;;;;;;;10.18;5.15;;;11.10;99.90;;;;;;5021927;28;20550;-77
2023/10/15 01:34:44;;;;;;;11.98;4.18;;;11.00;99.90;;;;;;5024191;28;20472;-76
2023/10/15 01:37:31;;;;;;;11.48;4.60;;;11.00;99.90;;;;;;5043339;28;20131;-76
2023/10/15 01:42:40;;;;;;;11.05;4.85;;;11.00;99.90;;;;;;5039981;28;20485;-75
2023/10/15 01:45:13;;;;;;;10.40;4.53;;;11.00;99.90;;;;;;5045600;28;20009;-74
2023/10/15 01:50:32;;;;;;;11.75;5.20;;;11.00;99.90;;;;;;5040972;28;20072;-76
2023/10/15 01:53:01;;;;;;;10.97;5.00;;;10.90;99.90;;;;;;5021585;28;20029;-76
2023/10/15 01:55:29;;;;;;;12.48;4.85;;;10.90;99.90;;;;;;5041395;28;20649;-75
2023/10/15 01:58:00;;;;;;;12.20;4.38;;;11.00;99.90;;;;;;5035738;28;20063;-76
2023/10/15 02:00:50;;;;;;;10.98;4.57;;;10.90;99.90;;;;;;5024428;28;20029;-77
2023/10/15 02:03:15;;;;;;;10.95;4.00;;;10.90;99.90;;;;;;5035453;28;20104;-77
2023/10/15 02:05:41;;;;;;;9.32;3.47;;;10.90;99.90;;;;;;5039028;28;20496;-76
2023/10/15 02:08:23;;;;;;;14.27;4.32;;;10.90;99.90;;;;;;5038399;28;20521;-76
2023/10/15 02:10:49;;;;;;;11.82;4.03;;;10.80;99.90;;;;;;5023227;28;20017;-76
2023/10/15 02:13:16;;;;;;;9.55;4.13;;;10.90;99.90;;;;;;5041408;28;20031;-76
2023/10/15 02:15:43;;;;;;;10.48;3.97;;;10.90;99.90;;;;;;5023562;28;20026;-76
2023/10/15 02:18:19;;;;;;;11.75;3.85;;;10.90;99.90;;;;;;5040997;28;20434;-76
2023/10/15 02:21:06;;;;;;;7.63;3.60;;;10.90;99.90;;;;;;5043354;28;20068;-76
2023/10/15 02:23:32;;;;;;;12.18;3.92;;;10.90;99.90;;;;;;5037861;28;20052;-76
2023/10/15 02:25:58;;;;;;;8.25;3.97;;;10.90;99.90;;;;;;5041298;28;20033;-76
2023/10/15 02:28:31;;;;;;;8.23;3.80;;;10.90;99.90;;;;;;5040682;28;20086;-76
2023/10/15 02:31:00;;;;;;;10.63;4.38;;;10.80;99.90;;;;;;5020674;28;20025;-76
2023/10/15 02:33:27;;;;;;;11.20;4.35;;;10.90;99.90;;;;;;5042045;28;20079;-74
2023/10/15 02:35:58;;;;;;;12.65;5.00;;;10.80;99.90;;;;;;5023972;28;20437;-77
2023/10/15 02:38:26;;;;;;;11.77;4.65;;;10.70;99.90;;;;;;5040585;28;20079;-77
2023/10/15 02:43:32;;;;;;;7.60;4.07;;;10.70;99.90;;;;;;5041785;28;20540;-78
2023/10/15 02:46:01;;;;;;;9.95;3.50;;;10.70;99.90;;;;;;5045772;28;20013;-77
2023/10/15 02:48:34;;;;;;;15.75;4.10;;;10.60;99.90;;;;;;5042568;28;20017;-77
2023/10/15 02:53:26;;;;;;;7.15;2.60;;;10.70;99.90;;;;;;5035729;28;20048;-78
2023/10/15 02:55:57;;;;;;;9.25;3.63;;;10.60;99.90;;;;;;5039588;28;20027;-77
2023/10/15 02:58:27;;;;;;;6.97;2.40;;;10.60;99.90;;;;;;5040182;28;20033;-77
2023/10/15 03:00:59;;;;;;;9.00;3.00;;;10.70;99.90;;;;;;5036306;28;20124;-77
2023/10/15 03:03:33;;;;;;;7.37;2.60;;;10.70;99.90;;;;;;5039694;28;20036;-77
2023/10/15 03:05:59;;;;;;;7.80;2.55;;;10.70;99.90;;;;;;5039657;28;20040;-78
2023/10/15 03:08:31;;;;;;;6.03;2.30;;;10.70;99.90;;;;;;5022429;28;20025;-77
2023/10/15 03:11:12;;;;;;;3.90;1.58;;;10.70;99.90;;;;;;5033827;28;20035;-77
2023/10/15 03:13:56;;;;;;;6.65;1.73;;;10.70;99.90;;;;;;5025056;28;20359;-78
2023/10/15 03:16:30;;;;;;;3.20;1.63;;;10.70;99.90;;;;;;5035764;28;20036;-77
2023/10/15 03:18:56;;;;;;;2.10;1.30;;;10.70;99.90;;;;;;5037365;28;20016;-77
2023/10/15 03:21:25;;;;;;;2.78;0.88;;;10.80;99.90;;;;;;5036112;28;20029;-76
2023/10/15 03:23:55;;;;;;;2.88;1.00;;;10.70;99.90;;;;;;5038731;28;20521;-77
2023/10/15 03:26:24;;;;;;;4.65;1.10;;;10.80;99.90;;;;;;5035799;28;20945;-77
2023/10/15 03:28:58;;;;;;;4.90;0.88;;;10.80;99.90;;;;;;5041037;28;20021;-77
2023/10/15 03:31:27;;;;;;;0.70;0.40;;;10.70;99.90;;;;;;5041870;28;20088;-78
2023/10/15 03:36:51;;;;;;;5.50;0.73;;;10.70;99.90;;;;;;5040984;28;20133;-76
2023/10/15 03:39:54;;;;;;;1.05;0.50;;;10.70;99.90;;;;;;5036524;28;20550;-77
2023/10/15 03:44:47;;;;;;;2.65;0.38;;;10.80;99.90;;;;;;5038274;28;20041;-77
2023/10/15 03:47:14;;;;;;;1.50;0.60;;;10.80;99.90;;;;;;5036755;28;20025;-78
2023/10/15 03:49:40;;;;;;;3.17;0.82;;;10.80;99.90;;;;;;5039726;28;20026;-78
2023/10/15 03:52:14;;;;;;;3.25;1.00;;;10.80;99.90;;;;;;5036183;28;20017;-78
2023/10/15 03:54:47;;;;;;;3.28;1.05;;;10.70;99.90;;;;;;5018988;28;20490;-77
2023/10/15 03:57:27;;;;;;;1.55;0.80;;;10.70;99.90;;;;;;5035346;28;20028;-77
2023/10/15 03:59:53;;;;;;;3.25;0.90;;;10.80;99.90;;;;;;5040092;28;20075;-78
2023/10/15 04:02:24;;;;;;;1.73;0.93;;;10.70;99.90;;;;;;5039411;28;20445;-78
2023/10/15 04:05:00;;;;;;;3.17;0.90;;;10.80;99.90;;;;;;5039004;28;20016;-78
2023/10/15 04:07:27;;;;;;;2.85;1.00;;;10.80;99.90;;;;;;5020129;28;20478;-76
2023/10/15 04:09:53;;;;;;;5.30;1.40;;;10.80;99.90;;;;;;5042114;28;20466;-78
2023/10/15 04:12:19;;;;;;;4.05;1.13;;;10.80;99.90;;;;;;5036247;28;20029;-78
2023/10/15 04:14:46;;;;;;;5.85;1.63;;;10.70;99.90;;;;;;5040902;28;20025;-78
2023/10/15 04:17:12;;;;;;;4.07;2.30;;;10.70;99.90;;;;;;5019412;28;20025;-78
2023/10/15 04:19:37;;;;;;;6.57;1.95;;;10.70;99.90;;;;;;5038963;28;20032;-78
2023/10/15 04:22:24;;;;;;;3.55;0.95;;;10.80;99.90;;;;;;5037646;28;20022;-78
2023/10/15 04:24:50;;;;;;;4.45;1.30;;;10.70;99.90;;;;;;5038045;28;20375;-76
2023/10/15 04:27:17;;;;;;;5.07;1.25;;;10.70;99.90;;;;;;5038644;28;20057;-77
2023/10/15 04:29:59;;;;;;;4.18;1.55;;;10.80;99.90;;;;;;5040013;28;20026;-77
2023/10/15 04:35:08;;;;;;;3.63;1.65;;;10.70;99.90;;;;;;5040450;28;20037;-77
2023/10/15 04:37:36;;;;;;;5.53;1.70;;;10.80;99.90;;;;;;5035030;28;20021;-76
2023/10/15 04:40:05;;;;;;;5.25;1.73;;;10.80;99.90;;;;;;5037284;28;20051;-77
2023/10/15 04:42:40;;;;;;;4.80;1.90;;;10.70;99.90;;;;;;5034304;28;20021;-76
2023/10/15 04:45:20;;;;;;;5.53;1.58;;;10.80;99.90;;;;;;5035828;28;20018;-77
2023/10/15 04:47:51;;;;;;;5.35;1.80;;;10.70;99.90;;;;;;5034526;28;20025;-77
2023/10/15 04:50:16;;;;;;;4.32;1.77;;;10.80;99.90;;;;;;5031896;28;20274;-77
2023/10/15 04:52:43;;;;;;;5.97;1.73;;;10.90;99.90;;;;;;5036538;28;20462;-77
2023/10/15 04:55:10;;;;;;;10.07;1.83;;;10.90;99.90;;;;;;5036533;28;20041;-78
2023/10/15 04:57:37;;;;;;;5.57;1.80;;;10.90;99.90;;;;;;5038590;28;20017;-78
2023/10/15 05:00:06;;;;;;;5.22;2.03;;;10.80;99.90;;;;;;5035433;28;20035;-77
2023/10/15 05:02:33;;;;;;;3.80;1.50;;;10.80;99.90;;;;;;5038520;28;20783;-77
2023/10/15 05:05:00;;;;;;;5.68;1.63;;;10.80;99.90;;;;;;5038986;28;20017;-78
2023/10/15 05:07:27;;;;;;;6.47;1.90;;;10.90;99.90;;;;;;5039880;28;20100;-77
2023/10/15 05:09:54;;;;;;;5.38;1.58;;;10.90;99.90;;;;;;5034069;28;20029;-77
2023/10/15 05:12:20;;;;;;;4.30;1.65;;;11.00;99.90;;;;;;5038830;28;20017;-77
2023/10/15 05:14:49;;;;;;;5.15;1.98;;;10.90;99.90;;;;;;5035873;28;20402;-78
2023/10/15 05:17:15;;;;;;;8.70;1.80;;;10.90;99.90;;;;;;5038371;28;20021;-78
2023/10/15 05:19:45;;;;;;;6.20;1.80;;;10.90;99.90;;;;;;5038198;28;20032;-77
2023/10/15 05:22:11;;;;;;;3.17;1.67;;;10.90;99.90;;;;;;5036645;28;20367;-77
2023/10/15 05:24:37;;;;;;;7.93;2.60;;;10.90;99.90;;;;;;5033095;28;20128;-77
2023/10/15 05:27:02;;;;;;;5.03;2.65;;;10.90;99.90;;;;;;5038912;28;20473;-78
2023/10/15 05:29:31;;;;;;;4.25;1.63;;;10.90;99.90;;;;;;5037049;28;20033;-76
2023/10/15 05:31:57;;;;;;;6.47;2.33;;;10.90;99.90;;;;;;5033144;28;20031;-77
2023/10/15 05:34:22;;;;;;;8.18;2.47;;;10.80;99.90;;;;;;5022056;28;20033;-78
2023/10/15 05:36:48;;;;;;;9.60;2.88;;;10.70;99.90;;;;;;5038053;28;20025;-77
2023/10/15 05:39:18;;;;;;;5.70;2.08;;;10.70;99.90;;;;;;5033194;28;20052;-77
2023/10/15 05:41:44;;;;;;;6.20;2.10;;;10.70;99.90;;;;;;5037367;28;20022;-78
2023/10/15 05:44:11;;;;;;;5.05;1.95;;;10.70;99.90;;;;;;5039122;28;20049;-78
2023/10/15 05:46:36;;;;;;;5.00;2.00;;;10.70;99.90;;;;;;5037220;28;20056;-77
2023/10/15 05:49:02;;;;;;;5.55;2.45;;;10.70;99.90;;;;;;5039106;28;20025;-77
2023/10/15 05:51:28;;;;;;;4.57;2.33;;;10.60;99.90;;;;;;5035989;28;20184;-78
2023/10/15 05:53:54;;;;;;;5.40;2.50;;;10.60;99.90;;;;;;5034141;28;20063;-78
2023/10/15 05:56:21;;;;;;;6.90;2.30;;;10.60;99.90;;;;;;5020775;28;20021;-79
2023/10/15 05:58:47;;;;;;;6.88;2.42;;;10.50;99.90;;;;;;5035330;28;20053;-78
2023/10/15 06:01:15;;;;;;;6.78;2.40;;;10.50;99.90;;;;;;5033915;28;20029;-77
2023/10/15 06:03:41;;;;;;;6.40;2.78;;;10.40;99.90;;;;;;5019717;28;20120;-77
2023/10/15 06:06:06;;;;;;;7.22;2.42;;;10.40;99.90;;;;;;5036472;28;20105;-78
2023/10/15 06:08:33;;;;;;;5.78;2.40;;;10.40;99.90;;;;;;5035942;28;20045;-78
2023/10/15 06:10:59;;;;;;;8.05;2.90;;;10.40;99.90;;;;;;5030566;28;20493;-78
2023/10/15 06:13:25;;;;;;;9.05;3.03;;;10.50;99.90;;;;;;5041870;28;20029;-77
2023/10/15 06:15:51;;;;;;;6.03;2.70;;;10.40;99.90;;;;;;5025943;28;20473;-76
2023/10/15 06:18:17;;;;;;;4.93;2.60;;;10.50;99.90;;;;;;5024772;28;20072;-77
2023/10/15 06:20:47;;;;;;;6.78;2.90;;;10.50;99.90;;;;;;5043913;28;20064;-77
2023/10/15 06:23:13;;;;;;;3.65;1.95;;;10.50;99.90;;;;;;5021739;28;20053;-77
2023/10/15 06:25:39;;;;;;;9.07;3.05;;;10.40;99.90;;;;;;5026757;28;20020;-76
2023/10/15 06:28:06;;;;;;;11.77;4.20;;;10.40;99.90;;;;;;5042468;28;20444;-75
2023/10/15 06:30:31;;;;;;;8.25;4.13;;;10.30;99.90;;;;;;5042512;28;20028;-76
2023/10/15 06:32:57;;;;;;;8.77;3.40;;;10.30;99.90;;;;;;5039654;28;20041;-76
2023/10/15 06:35:25;;;;;;;6.80;4.30;;;10.30;99.90;;;;;;5042734;28;20029;-75
2023/10/15 06:37:55;;;;;;;7.47;4.50;;;10.30;99.90;;;;;;5037677;28;20043;-75
2023/10/15 06:40:21;;;;;;;11.27;5.40;;;10.30;99.90;;;;;;5034840;28;20031;-74
2023/10/15 06:42:47;;;;;;;13.05;6.20;;;10.40;99.90;;;;;;5039552;28;20035;-73
2023/10/15 06:45:19;;;;;;;12.15;7.18;;;10.40;99.90;;;;;;5040787;28;20104;-74
2023/10/15 06:47:51;;;;;;;12.45;6.55;;;10.20;99.90;;;;;;5039109;28;20021;-74
2023/10/15 06:50:19;;;;;;;9.05;6.28;;;10.20;99.90;;;;;;5040235;28;20029;-74
2023/10/15 06:52:45;;;;;;;9.40;7.28;;;10.10;99.90;;;;;;5038041;28;20021;-74
2023/10/15 06:55:13;;;;;;;8.80;5.35;;;10.30;99.90;;;;;;5037542;28;20037;-75
2023/10/15 06:57:40;;;;;;;8.48;4.78;;;10.30;99.90;;;;;;5039066;28;20091;-75
2023/10/15 07:00:07;;;;;;;9.70;5.65;;;10.40;99.90;;;;;;5040095;28;20040;-76
2023/10/15 07:02:33;;;;;;;6.85;4.90;;;10.50;99.90;;;;;;5018441;28;20116;-76
2023/10/15 07:05:02;;;;;;;6.40;4.97;;;10.60;99.90;;;;;;5038801;28;20037;-76
2023/10/15 07:07:28;;;;;;;6.63;5.53;;;10.60;99.90;;;;;;5037535;28;20032;-76
2023/10/15 07:09:54;;;;;;;10.95;6.55;;;10.60;99.90;;;;;;5036332;28;20025;-76
2023/10/15 07:12:20;;;;;;;11.25;7.07;;;10.60;99.90;;;;;;5040574;28;20116;-77
2023/10/15 07:14:50;;;;;;;9.70;8.50;;;10.70;99.90;;;;;;5037334;28;20059;-77
2023/10/15 07:17:18;;;;;;;12.50;8.00;;;10.60;99.90;;;;;;5036743;28;20040;-77
2023/10/15 07:19:44;;;;;;;9.73;8.07;;;10.70;99.90;;;;;;5039711;28;20025;-77
2023/10/15 07:22:10;;;;;;;13.02;8.23;;;10.80;99.90;;;;;;5038166;28;20037;-77
2023/10/15 07:24:36;;;;;;;14.75;9.50;;;10.80;99.90;;;;;;5018432;28;20121;-80
2023/10/15 07:27:01;;;;;;;14.48;8.85;;;10.90;99.90;;;;;;5039252;28;20082;-79
2023/10/15 07:29:30;;;;;;;16.48;10.48;;;10.90;99.90;;;;;;5037034;28;20036;-79
2023/10/15 07:31:56;;;;;;;11.57;10.13;;;10.90;99.90;;;;;;5019758;28;20037;-79
2023/10/15 07:34:26;;;;;;;12.30;8.77;;;11.00;99.90;;;;;;5022621;28;20029;-79
2023/10/15 07:36:56;;;;;;;13.85;9.38;;;11.00;99.90;;;;;;5041646;28;20052;-79
2023/10/15 07:39:31;;;;;;;13.55;9.07;;;10.90;99.90;;;;;;5037268;28;20029;-79
2023/10/15 07:41:58;;;;;;;9.68;8.55;;;10.90;99.90;;;;;;5038472;28;20021;-79
2023/10/15 07:44:24;;;;;;;9.38;7.53;;;10.90;99.90;;;;;;5033378;28;20025;-79
2023/10/15 07:46:54;;;;;;;13.13;9.07;;;10.90;99.90;;;;;;5037532;28;20033;-78
2023/10/15 07:49:24;;;;;;;10.70;7.65;;;11.00;99.90;;;;;;5039577;28;20025;-77
2023/10/15 07:51:51;;;;;;;9.30;8.00;;;11.00;99.90;;;;;;5037804;28;20033;-78
2023/10/15 07:54:17;;;;;;;12.82;8.10;;;11.10;99.90;;;;;;5035559;28;20029;-78
2023/10/15 07:56:42;;;;;;;13.90;9.57;;;11.20;99.90;;;;;;5035397;28;20044;-78
2023/10/15 07:59:08;;;;;;;10.10;8.20;;;11.20;99.90;;;;;;5020947;28;20465;-79
2023/10/15 08:01:36;;;;;;;13.38;8.05;;;11.10;99.90;;;;;;5036974;28;20071;-79
2023/10/15 08:04:04;;;;;;;13.60;7.90;;;11.20;99.90;;;;;;5033724;28;20425;-78
2023/10/15 08:06:29;;;;;;;15.98;9.43;;;11.30;99.90;;;;;;5038632;28;20021;-78
2023/10/15 08:08:55;;;;;;;12.13;7.60;;;11.40;99.90;;;;;;5038316;28;20026;-78
2023/10/15 08:11:21;;;;;;;9.48;7.32;;;11.30;99.90;;;;;;5037915;28;20021;-78
2023/10/15 08:13:47;;;;;;;10.40;6.85;;;11.40;99.90;;;;;;5040962;28;20036;-78
2023/10/15 08:16:12;;;;;;;9.90;5.90;;;11.40;99.90;;;;;;5039452;28;20033;-79
2023/10/15 08:18:38;;;;;;;11.82;5.50;;;11.40;99.90;;;;;;5040654;28;20228;-80
2023/10/15 08:21:04;;;;;;;8.30;4.47;;;11.50;99.90;;;;;;5038943;28;20163;-80
2023/10/15 08:23:29;;;;;;;9.23;4.70;;;11.50;99.90;;;;;;5036822;28;20087;-80
2023/10/15 08:25:55;;;;;;;5.75;4.03;;;11.40;99.90;;;;;;5021445;28;20425;-80
2023/10/15 08:28:22;;;;;;;4.95;3.33;;;11.30;99.90;;;;;;5037374;28;20033;-80
2023/10/15 08:30:54;;;;;;;5.72;3.28;;;11.30;99.90;;;;;;5035867;28;20037;-79
2023/10/15 08:33:20;;;;;;;7.22;3.17;;;11.30;99.90;;;;;;5036316;28;20025;-79
2023/10/15 08:35:48;;;;;;;7.18;2.75;;;11.30;99.90;;;;;;5038290;28;20032;-79
2023/10/15 08:38:14;;;;;;;6.82;2.40;;;11.30;99.90;;;;;;5018068;28;20029;-78
2023/10/15 08:40:41;;;;;;;5.10;2.22;;;11.30;99.90;;;;;;5037607;28;20052;-76
2023/10/15 08:43:21;;;;;;;5.97;2.25;;;11.20;99.90;;;;;;5038883;28;20021;-75
2023/10/15 08:45:48;;;;;;;5.60;2.50;;;11.20;99.90;;;;;;5039569;28;20039;-75
2023/10/15 08:48:16;;;;;;;3.80;2.25;;;11.20;99.90;;;;;;5034382;28;20209;-74
2023/10/15 08:50:43;;;;;;;5.65;2.38;;;11.20;99.90;;;;;;5040274;28;20039;-75
2023/10/15 08:53:09;;;;;;;5.85;1.75;;;11.10;99.90;;;;;;5018686;28;20390;-75
2023/10/15 08:55:37;;;;;;;4.00;1.50;;;11.00;99.90;;;;;;5039541;28;20037;-75
2023/10/15 08:58:06;;;;;;;2.13;1.38;;;11.00;99.90;;;;;;5037462;28;20477;-76
2023/10/15 09:00:33;;;;;;;4.03;1.35;;;10.90;99.90;;;;;;5039093;28;20376;-75
2023/10/15 09:03:00;;;;;;;6.40;1.40;;;11.00;99.90;;;;;;5021255;28;20385;-75
2023/10/15 09:05:36;;;;;;;3.55;1.40;;;11.00;99.90;;;;;;5024396;28;20101;-75
2023/10/15 09:08:07;;;;;;;4.53;1.45;;;11.00;99.90;;;;;;5039356;28;20025;-76
2023/10/15 09:10:40;;;;;;;4.28;1.38;;;11.00;99.90;;;;;;5036822;28;20151;-76
2023/10/15 09:13:14;;;;;;;4.30;1.33;;;11.00;99.90;;;;;;5036222;28;20036;-76
2023/10/15 09:15:43;;;;;;;5.40;1.10;;;10.90;99.90;;;;;;5036125;28;20818;-76
2023/10/15 09:18:15;;;;;;;3.72;1.25;;;10.90;99.90;;;;;;5035744;28;20032;-75
2023/10/15 09:20:43;;;;;;;;;;;10.90;99.90;;;;;;5035959;28;20070;-73
2023/10/15 09:23:09;;;;;;;4.45;1.85;;;11.00;99.90;;;;;;5040993;28;19909;-77
2023/10/15 09:25:35;;;;;;;3.78;1.20;;;11.00;99.90;;;;;;5040755;28;20032;-77
2023/10/15 09:28:02;;;;;;;5.50;1.83;;;11.10;99.90;;;;;;5037688;28;20041;-78
2023/10/15 09:30:32;;;;;;;5.25;1.13;;;11.10;99.90;;;;;;5038433;28;20022;-78
2023/10/15 09:32:58;;;;;;;4.50;1.23;;;11.20;99.90;;;;;;5035164;28;20032;-78
2023/10/15 09:35:24;;;;;;;5.80;1.48;;;11.20;99.90;;;;;;5037905;28;20074;-78
2023/10/15 09:37:50;;;;;;;3.17;1.05;;;11.10;99.90;;;;;;5036903;28;20693;-78
2023/10/15 09:40:31;;;;;;;3.00;1.63;;;11.20;99.90;;;;;;5032589;28;20025;-76
2023/10/15 09:42:57;;;;;;;4.20;1.45;;;11.20;99.90;;;;;;5033970;28;20087;-78
2023/10/15 09:45:23;;;;;;;3.42;1.30;;;11.30;99.90;;;;;;5038802;28;20021;-77
2023/10/15 09:47:57;;;;;;;3.55;0.98;;;11.30;99.90;;;;;;5041695;28;20029;-77
2023/10/15 09:50:38;;;;;;;3.55;1.15;;;11.30;99.90;;;;;;5036046;28;20040;-78
2023/10/15 09:53:10;;;;;;;5.43;1.42;;;11.30;99.90;;;;;;5039168;28;20013;-78
2023/10/15 09:55:38;;;;;;;6.05;3.03;;;11.40;99.90;;;;;;5039622;28;20103;-77
2023/10/15 09:58:04;;;;;;;8.23;2.90;;;11.40;99.90;;;;;;5041821;28;20021;-73
2023/10/15 10:03:30;;;;;;;10.20;3.95;;;11.50;99.90;;;;;;5040327;28;20051;-77
2023/10/15 10:06:09;;;;;;;9.07;3.38;;;11.40;99.90;;;;;;5043116;28;20026;-77
2023/10/15 10:09:01;;;;;;;4.80;3.17;;;11.50;99.90;;;;;;5038859;28;20540;-73
2023/10/15 10:12:00;;;;;;;4.95;2.08;;;11.60;99.90;;;;;;5040815;28;20049;-75
2023/10/15 10:14:56;;;;;;;7.57;2.25;;;11.70;99.90;;;;;;5034862;28;20478;-74
2023/10/15 10:17:23;;;;;;;8.90;2.00;;;11.80;99.90;;;;;;5038768;28;20490;-77
2023/10/15 10:19:53;;;;;;;5.75;1.70;;;11.90;99.90;;;;;;5038306;28;20112;-79
2023/10/15 10:22:24;;;;;;;4.95;1.42;;;11.90;99.90;;;;;;5021854;28;20020;-78
2023/10/15 10:24:50;;;;;;;7.63;2.22;;;11.80;99.90;;;;;;5042437;28;20033;-77
2023/10/15 10:27:17;;;;;;;6.90;1.88;;;11.70;99.90;;;;;;5037478;28;20021;-74
2023/10/15 10:29:43;;;;;;;5.70;1.50;;;11.80;99.90;;;;;;5037432;28;20112;-74
2023/10/15 10:32:13;;;;;;;2.67;1.50;;;11.60;99.90;;;;;;5039468;28;20029;-74
2023/10/15 10:34:39;;;;;;;4.70;1.67;;;11.50;99.90;;;;;;5040172;28;20065;-73
2023/10/15 10:37:20;;;;;;;3.58;1.80;;;11.50;99.90;;;;;;5040773;28;20505;-75
2023/10/15 10:39:48;;;;;;;7.68;1.40;;;11.50;99.90;;;;;;5028309;28;20055;-75
2023/10/15 10:42:26;;;;;;;1.42;0.90;;;11.50;99.90;;;;;;5042317;28;20017;-74
2023/10/15 10:44:58;;;;;;;2.15;0.75;;;11.50;99.90;;;;;;5038211;28;20413;-75
2023/10/15 10:47:28;;;;;;;;;;;11.50;99.90;;;;;;5041801;28;20040;-72
2023/10/15 10:49:58;;;;;;;2.63;1.38;;;11.60;99.90;;;;;;5036778;28;19905;-75
2023/10/15 10:52:36;;;;;;;4.50;1.00;;;11.60;99.90;;;;;;5038745;28;20026;-74
2023/10/15 10:55:47;;;;;;;2.45;0.90;;;11.60;99.90;;;;;;5034321;28;20558;-74
2023/10/15 10:58:26;;;;;;;4.10;0.70;;;11.60;99.90;;;;;;5037353;28;20049;-74
2023/10/15 11:00:53;;;;;;;4.72;0.77;;;11.80;99.90;;;;;;5040478;28;20029;-74
2023/10/15 11:03:19;;;;;;;2.05;1.00;;;11.80;99.90;;;;;;5037888;28;20462;-74
2023/10/15 11:05:45;;;;;;;3.22;0.95;;;11.80;99.90;;;;;;5043787;28;20029;-75
2023/10/15 11:08:19;;;;;;;3.22;1.45;;;12.00;99.90;;;;;;5037078;28;20167;-75
2023/10/15 11:10:48;;;;;;;3.42;1.05;;;12.10;99.90;;;;;;5024505;28;20060;-75
2023/10/15 11:13:17;;;;;;;1.83;0.93;;;12.30;99.90;;;;;;5022547;28;20021;-75
2023/10/15 11:15:49;;;;;;;2.47;0.75;;;12.40;99.90;;;;;;5037679;28;20493;-76
2023/10/15 11:18:21;;;;;;;2.95;0.93;;;12.60;99.90;;;;;;5040198;28;20044;-77
2023/10/15 11:20:47;;;;;;;3.20;0.83;;;12.80;99.90;;;;;;5039045;28;20037;-79
2023/10/15 11:23:13;;;;;;;2.90;0.75;;;12.90;99.90;;;;;;5039487;28;20022;-76
2023/10/15 11:25:39;;;;;;;5.10;0.80;;;12.70;99.90;;;;;;5037000;28;20041;-76
2023/10/15 11:28:11;;;;;;;1.67;0.50;;;12.80;99.90;;;;;;5035205;28;20127;-77
2023/10/15 11:30:42;;;;;;;4.13;1.02;;;12.70;99.90;;;;;;5036067;28;20049;-77
2023/10/15 11:33:09;;;;;;;3.00;0.70;;;12.70;99.90;;;;;;5040090;28;20029;-77
2023/10/15 11:35:36;;;;;;;2.83;0.60;;;12.70;99.90;;;;;;5037065;28;20032;-77
2023/10/15 11:38:08;;;;;;;6.05;2.40;;;12.80;99.90;;;;;;5038677;28;20028;-77
2023/10/15 11:40:41;;;;;;;3.42;1.65;;;12.70;99.90;;;;;;5037472;28;20040;-76
2023/10/15 11:43:17;;;;;;;3.22;1.60;;;12.60;99.90;;;;;;5041517;28;20056;-76
2023/10/15 11:45:43;;;;;;;2.72;1.13;;;12.60;99.90;;;;;;5035347;28;20072;-76
2023/10/15 11:48:13;;;;;;;4.95;1.27;;;12.70;99.90;;;;;;5038862;28;20033;-76
2023/10/15 11:50:44;;;;;;;3.28;1.00;;;12.80;99.90;;;;;;5038541;28;20028;-76
2023/10/15 11:53:16;;;;;;;2.97;1.60;;;12.80;99.90;;;;;;5019812;28;20076;-76
2023/10/15 11:55:50;;;;;;;5.32;1.38;;;12.70;99.90;;;;;;5037252;28;20047;-76
2023/10/15 11:58:16;;;;;;;5.25;0.98;;;12.70;99.90;;;;;;5035832;28;20523;-77
2023/10/15 12:00:42;;;;;;;4.35;1.20;;;12.70;99.90;;;;;;5017339;28;20029;-76
2023/10/15 12:03:09;;;;;;;3.67;1.02;;;12.90;99.90;;;;;;5018329;28;20492;-76
2023/10/15 12:05:37;;;;;;;3.40;0.93;;;12.80;99.90;;;;;;5042734;28;20035;-75
2023/10/15 12:08:03;;;;;;;3.42;0.93;;;13.00;99.90;;;;;;5037894;28;20469;-76
2023/10/15 12:10:32;;;;;;;5.18;1.13;;;13.20;99.90;;;;;;5038455;28;20037;-76
2023/10/15 12:13:02;;;;;;;4.75;1.42;;;13.30;99.90;;;;;;5040499;28;20478;-76
2023/10/15 12:15:30;;;;;;;5.90;1.25;;;13.30;99.90;;;;;;5040459;28;20032;-77
2023/10/15 12:17:58;;;;;;;5.28;1.63;;;13.30;99.90;;;;;;5039750;28;20034;-77
2023/10/15 12:20:26;;;;;;;6.60;2.17;;;13.30;99.90;;;;;;5039332;28;20061;-76
2023/10/15 12:22:52;;;;;;;6.90;1.40;;;13.20;99.90;;;;;;5037102;28;20040;-75
2023/10/15 12:25:18;;;;;;;2.22;0.80;;;13.10;99.90;;;;;;5039872;28;20425;-76
2023/10/15 12:27:43;;;;;;;3.25;2.00;;;13.20;99.90;;;;;;5037666;28;20087;-77
2023/10/15 12:30:19;;;;;;;4.47;1.30;;;13.30;99.90;;;;;;5039281;28;20470;-76
2023/10/15 12:32:45;;;;;;;2.88;1.05;;;13.40;99.90;;;;;;5033949;28;20025;-76
2023/10/15 12:35:11;;;;;;;2.58;0.85;;;13.40;99.90;;;;;;5038230;28;20052;-76
2023/10/15 12:37:38;;;;;;;1.92;0.70;;;13.50;99.90;;;;;;5038620;28;20033;-76
2023/10/15 12:40:12;;;;;;;2.85;1.10;;;13.60;99.90;;;;;;5036709;28;20029;-76
2023/10/15 12:42:40;;;;;;;3.05;0.80;;;13.50;99.90;;;;;;5040025;28;20085;-75
2023/10/15 12:45:10;;;;;;;2.83;1.10;;;13.40;99.90;;;;;;5040209;28;20108;-76
2023/10/15 12:47:39;;;;;;;2.25;0.73;;;13.40;99.90;;;;;;5020958;28;20028;-75
2023/10/15 12:50:14;;;;;;;4.35;0.65;;;13.40;99.90;;;;;;5039174;28;20106;-75
2023/10/15 12:52:47;;;;;;;2.53;0.82;;;13.40;99.90;;;;;;5038084;28;20074;-75
2023/10/15 12:55:34;;;;;;;6.57;1.40;;;13.40;99.90;;;;;;5040268;28;20040;-75
2023/10/15 12:57:59;;;;;;;3.92;0.82;;;13.30;99.90;;;;;;5034257;28;20124;-76
2023/10/15 13:00:28;;;;;;;5.15;2.22;;;13.20;99.90;;;;;;5034934;28;20489;-76
2023/10/15 13:02:54;;;;;;;4.40;1.20;;;13.20;99.90;;;;;;5035695;28;20104;-77
2023/10/15 13:05:25;;;;;;;4.55;1.13;;;13.20;99.90;;;;;;5037678;28;20533;-76
2023/10/15 13:07:52;;;;;;;7.05;1.17;;;13.30;99.90;;;;;;5037348;28;20064;-76
2023/10/15 13:10:20;;;;;;;3.28;0.85;;;13.30;99.90;;;;;;5034924;28;20029;-76
2023/10/15 13:12:54;;;;;;;3.22;0.80;;;13.40;99.90;;;;;;5035915;28;20021;-77
2023/10/15 13:15:21;;;;;;;4.00;1.20;;;13.40;99.90;;;;;;5021727;28;20025;-76
2023/10/15 13:17:50;;;;;;;4.25;1.80;;;13.30;99.90;;;;;;5034901;28;20021;-76
2023/10/15 13:20:17;;;;;;;3.88;1.20;;;13.40;99.90;;;;;;5016486;28;20025;-74
2023/10/15 13:22:44;;;;;;;3.17;0.90;;;13.40;99.90;;;;;;5034623;28;20030;-76